Time;durP1;ratioP1;P1;durP2;ratioP2;P2;SDS_P1;SDS_P2;PMS_P1;PMS_P2;Temp;Humidity;BMP_temperature;BMP_pressure;BME280_temperature;BME280_humidity;BME280_pressure;Samples;Min_cycle;Max_cycle;Signal;HPM_P1;HPM_P2
2022/03/02 00:00:23;;;;;;;16.25;9.68;;;-0.40;78.00;;;;;;5010592;28;20038;-72
2022/03/02 00:02:49;;;;;;;18.98;9.48;;;-0.40;78.10;;;;;;4991325;28;20061;-72
2022/03/02 00:05:14;;;;;;;18.42;10.07;;;-0.40;78.20;;;;;;5010670;28;20136;-72
2022/03/02 00:07:41;;;;;;;17.88;9.90;;;-0.40;78.40;;;;;;5010269;28;20025;-72
2022/03/02 00:10:06;;;;;;;18.17;10.13;;;-0.50;78.70;;;;;;4993178;28;20034;-72
2022/03/02 00:12:33;;;;;;;18.88;9.88;;;-0.40;79.20;;;;;;4993508;28;20060;-72
2022/03/02 00:14:59;;;;;;;16.40;9.40;;;-0.40;79.30;;;;;;5010636;28;20084;-72
2022/03/02 00:17:25;;;;;;;16.38;9.85;;;-0.40;79.50;;;;;;5009388;28;20057;-72
2022/03/02 00:19:51;;;;;;;17.65;9.43;;;-0.40;79.60;;;;;;5011371;28;20034;-72
2022/03/02 00:22:18;;;;;;;18.98;9.23;;;-0.40;79.80;;;;;;5011261;28;20033;-71
2022/03/02 00:24:50;;;;;;;13.73;8.40;;;-0.40;79.90;;;;;;4991947;28;20113;-72
2022/03/02 00:27:17;;;;;;;10.43;7.95;;;-0.30;80.20;;;;;;5008967;28;20028;-72
2022/03/02 00:29:42;;;;;;;14.73;8.60;;;-0.30;80.30;;;;;;5010910;28;20041;-72
2022/03/02 00:32:08;;;;;;;13.98;8.48;;;-0.30;80.40;;;;;;5010947;28;20033;-72
2022/03/02 00:34:34;;;;;;;13.75;7.93;;;-0.30;80.50;;;;;;4997216;28;20036;-72
2022/03/02 00:36:59;;;;;;;17.88;9.60;;;-0.30;80.60;;;;;;5015908;28;20402;-72
2022/03/02 00:39:25;;;;;;;15.05;9.00;;;-0.20;81.00;;;;;;5009998;28;20061;-72
2022/03/02 00:41:51;;;;;;;14.57;8.88;;;-0.20;81.10;;;;;;5010728;28;20029;-72
2022/03/02 00:44:17;;;;;;;15.77;9.73;;;-0.20;80.80;;;;;;5003974;28;20028;-72
2022/03/02 00:46:42;;;;;;;14.75;9.52;;;-0.30;80.50;;;;;;5010345;28;20029;-72
2022/03/02 00:49:08;;;;;;;15.88;8.70;;;-0.40;80.50;;;;;;5009455;28;20030;-72
2022/03/02 00:51:34;;;;;;;14.63;8.85;;;-0.40;80.50;;;;;;4992782;28;20394;-72
2022/03/02 00:54:00;;;;;;;14.18;9.10;;;-0.50;80.60;;;;;;4992368;28;20037;-72
2022/03/02 00:56:26;;;;;;;16.73;9.23;;;-0.60;80.70;;;;;;4993525;28;20057;-72
2022/03/02 00:58:52;;;;;;;17.30;9.70;;;-0.60;81.10;;;;;;4990075;28;20026;-72
2022/03/02 01:01:17;;;;;;;15.88;8.75;;;-0.70;81.40;;;;;;5009289;28;20030;-72
2022/03/02 01:03:43;;;;;;;14.07;8.65;;;-0.70;81.90;;;;;;5009727;28;20026;-72
2022/03/02 01:06:10;;;;;;;17.35;10.13;;;-0.70;82.70;;;;;;5010815;28;20108;-72
2022/03/02 01:08:35;;;;;;;14.55;9.27;;;-0.70;83.20;;;;;;5008781;28;20018;-72
2022/03/02 01:11:02;;;;;;;16.75;9.32;;;-0.60;83.70;;;;;;5008899;28;20041;-72
2022/03/02 01:13:28;;;;;;;18.08;9.07;;;-0.60;83.90;;;;;;5010178;28;20033;-71
2022/03/02 01:15:53;;;;;;;15.48;9.25;;;-0.50;84.30;;;;;;5010552;28;20084;-72
2022/03/02 01:18:19;;;;;;;14.98;8.80;;;-0.40;84.60;;;;;;5008456;28;20029;-71
2022/03/02 01:20:45;;;;;;;14.95;9.40;;;-0.40;84.70;;;;;;5009713;28;20018;-72
2022/03/02 01:23:11;;;;;;;14.48;8.60;;;-0.40;85.10;;;;;;5009022;28;20398;-72
2022/03/02 01:25:37;;;;;;;14.40;8.32;;;-0.40;85.00;;;;;;5010671;28;20034;-72
2022/03/02 01:28:03;;;;;;;14.55;8.20;;;-0.40;85.30;;;;;;5009050;28;20036;-72
2022/03/02 01:30:29;;;;;;;17.02;8.95;;;-0.30;85.70;;;;;;4993274;28;20030;-72
2022/03/02 01:32:55;;;;;;;13.38;8.65;;;-0.30;85.60;;;;;;5009292;28;20476;-72
2022/03/02 01:35:21;;;;;;;13.88;8.50;;;-0.30;86.00;;;;;;5010546;28;20050;-72
2022/03/02 01:37:50;;;;;;;15.50;9.35;;;-0.20;86.20;;;;;;5005481;28;20092;-72
2022/03/02 01:40:16;;;;;;;12.35;8.25;;;-0.20;86.40;;;;;;5003587;28;20466;-71
2022/03/02 01:42:42;;;;;;;14.52;8.88;;;-0.10;86.30;;;;;;5008844;28;20101;-72
2022/03/02 01:45:10;;;;;;;13.30;8.93;;;-0.10;86.30;;;;;;5030468;28;20120;-71
2022/03/02 01:47:36;;;;;;;15.38;8.80;;;-0.10;86.20;;;;;;5012189;28;20029;-72
2022/03/02 01:50:04;;;;;;;12.52;8.20;;;-0.10;86.00;;;;;;5010030;28;20038;-72
2022/03/02 01:52:30;;;;;;;12.15;8.13;;;-0.10;86.00;;;;;;4990204;28;20112;-72
2022/03/02 01:54:57;;;;;;;14.98;8.40;;;-0.20;85.80;;;;;;5012160;28;20098;-72
2022/03/02 01:57:22;;;;;;;14.93;9.05;;;-0.30;85.70;;;;;;5010309;28;20022;-72
2022/03/02 01:59:49;;;;;;;13.32;8.15;;;-0.30;85.70;;;;;;4991878;28;20037;-72
2022/03/02 02:02:14;;;;;;;16.05;8.75;;;-0.40;85.80;;;;;;5008600;28;20022;-72
2022/03/02 02:04:40;;;;;;;14.68;8.35;;;-0.50;86.00;;;;;;5008956;28;20033;-72
2022/03/02 02:07:06;;;;;;;14.98;8.02;;;-0.50;86.20;;;;;;4991053;28;20024;-72
2022/03/02 02:09:32;;;;;;;15.77;8.52;;;-0.50;86.50;;;;;;5009269;28;20105;-72
2022/03/02 02:11:57;;;;;;;20.23;9.15;;;-0.50;86.70;;;;;;5009059;28;20080;-72
2022/03/02 02:14:23;;;;;;;17.95;9.38;;;-0.60;87.00;;;;;;4991877;28;20121;-72
2022/03/02 02:16:49;;;;;;;17.13;8.20;;;-0.60;87.20;;;;;;4990931;28;20034;-72
2022/03/02 02:19:14;;;;;;;18.50;9.25;;;-0.50;87.50;;;;;;4991363;28;20053;-72
2022/03/02 02:21:40;;;;;;;15.40;9.30;;;-0.50;87.80;;;;;;4992447;28;20026;-72
2022/03/02 02:24:06;;;;;;;14.48;7.95;;;-0.50;88.10;;;;;;5005240;28;20029;-73
2022/03/02 02:26:32;;;;;;;13.63;8.25;;;-0.40;88.50;;;;;;5009485;28;20482;-72
2022/03/02 02:28:58;;;;;;;12.57;8.00;;;-0.30;88.80;;;;;;5008100;28;20025;-72
2022/03/02 02:31:24;;;;;;;15.68;8.30;;;-0.30;88.70;;;;;;5009249;28;20030;-72
2022/03/02 02:33:51;;;;;;;14.18;7.75;;;-0.20;88.50;;;;;;4994146;28;20104;-72
2022/03/02 02:36:18;;;;;;;9.57;6.85;;;-0.30;88.00;;;;;;4995156;28;20030;-72
2022/03/02 02:38:44;;;;;;;14.00;7.25;;;-0.30;87.90;;;;;;4994941;28;20041;-72
2022/03/02 02:41:10;;;;;;;11.43;7.00;;;-0.30;88.10;;;;;;4994919;28;20026;-73
2022/03/02 02:43:37;;;;;;;12.95;7.30;;;-0.40;88.10;;;;;;5013476;28;20026;-72
2022/03/02 02:46:03;;;;;;;11.55;7.53;;;-0.40;88.20;;;;;;5011635;28;20080;-72
2022/03/02 02:48:29;;;;;;;13.05;7.70;;;-0.40;88.20;;;;;;4994758;28;20067;-72
2022/03/02 02:50:55;;;;;;;12.18;7.20;;;-0.40;88.20;;;;;;4995139;28;20034;-72
2022/03/02 02:53:20;;;;;;;10.43;7.28;;;-0.40;88.30;;;;;;4995336;28;20022;-72
2022/03/02 02:55:46;;;;;;;12.65;7.70;;;-0.40;88.40;;;;;;4995456;28;20052;-72
2022/03/02 02:58:12;;;;;;;15.68;7.40;;;-0.40;88.80;;;;;;5011094;28;20152;-73
2022/03/02 03:00:42;;;;;;;12.65;7.45;;;-0.40;88.50;;;;;;5011443;28;20034;-72
2022/03/02 03:03:08;;;;;;;13.93;7.95;;;-0.50;88.30;;;;;;4995715;28;20022;-72
2022/03/02 03:05:34;;;;;;;13.95;7.43;;;-0.50;88.30;;;;;;5012728;28;20033;-72
2022/03/02 03:08:05;;;;;;;11.63;7.40;;;-0.50;88.70;;;;;;4994111;28;20021;-73
2022/03/02 03:10:31;;;;;;;12.98;7.60;;;-0.50;88.80;;;;;;4994297;28;20604;-72
2022/03/02 03:12:57;;;;;;;11.70;8.20;;;-0.60;88.80;;;;;;5012393;28;20489;-72
2022/03/02 03:15:23;;;;;;;14.02;8.38;;;-0.60;88.70;;;;;;5012497;28;20072;-73
2022/03/02 03:17:50;;;;;;;13.20;7.95;;;-0.60;89.30;;;;;;5011640;28;20084;-73
2022/03/02 03:20:19;;;;;;;13.32;7.78;;;-0.70;89.00;;;;;;4994906;28;20037;-73
2022/03/02 03:22:45;;;;;;;15.13;8.35;;;-0.70;89.60;;;;;;5012009;28;20026;-72
2022/03/02 03:25:12;;;;;;;13.52;8.18;;;-0.70;89.90;;;;;;5012428;28;20319;-72
2022/03/02 03:27:40;;;;;;;14.45;7.72;;;-0.60;90.20;;;;;;4993844;28;20084;-72
2022/03/02 03:30:06;;;;;;;10.88;7.60;;;-0.60;90.20;;;;;;5011563;28;20053;-72
2022/03/02 03:32:32;;;;;;;14.52;7.68;;;-0.60;90.20;;;;;;5019388;28;20114;-72
2022/03/02 03:34:59;;;;;;;12.50;7.50;;;-0.50;90.40;;;;;;5011573;28;20057;-72
2022/03/02 03:37:25;;;;;;;13.07;7.70;;;-0.50;90.40;;;;;;4994063;28;20426;-73
2022/03/02 03:39:51;;;;;;;13.18;7.80;;;-0.50;90.40;;;;;;5011000;28;20026;-72
2022/03/02 03:42:16;;;;;;;15.80;8.75;;;-0.50;90.50;;;;;;5011368;28;20037;-73
2022/03/02 03:44:42;;;;;;;15.80;9.25;;;-0.40;90.60;;;;;;5012012;28;20026;-73
2022/03/02 03:47:08;;;;;;;17.40;9.50;;;-0.40;90.60;;;;;;4994288;28;20033;-73
2022/03/02 03:49:34;;;;;;;18.70;10.55;;;-0.40;90.60;;;;;;5012223;28;20534;-73
2022/03/02 03:52:00;;;;;;;16.75;9.63;;;-0.40;90.80;;;;;;4993246;28;20030;-72
2022/03/02 03:54:25;;;;;;;18.17;9.93;;;-0.40;90.70;;;;;;5012140;28;20067;-73
2022/03/02 03:56:51;;;;;;;19.25;10.15;;;-0.40;90.80;;;;;;4993827;28;20735;-73
2022/03/02 03:59:17;;;;;;;17.98;9.98;;;-0.40;90.60;;;;;;5011125;28;20117;-73
2022/03/02 04:01:42;;;;;;;18.60;10.38;;;-0.50;90.70;;;;;;5011693;28;20065;-73
2022/03/02 04:04:08;;;;;;;18.45;9.70;;;-0.50;90.70;;;;;;5011513;28;20049;-73
2022/03/02 04:06:34;;;;;;;17.77;9.88;;;-0.60;90.60;;;;;;4994464;28;20438;-73
2022/03/02 04:08:59;;;;;;;16.48;9.70;;;-0.70;90.50;;;;;;4993481;28;20036;-73
2022/03/02 04:11:25;;;;;;;21.10;10.45;;;-0.80;90.60;;;;;;4993211;28;20088;-73
2022/03/02 04:13:50;;;;;;;20.10;10.90;;;-0.80;90.70;;;;;;5011586;28;20112;-73
2022/03/02 04:16:16;;;;;;;19.88;10.07;;;-0.90;90.80;;;;;;4993582;28;20025;-73
2022/03/02 04:18:42;;;;;;;16.98;10.43;;;-0.90;90.80;;;;;;4993316;28;20022;-73
2022/03/02 04:21:08;;;;;;;19.52;10.48;;;-1.00;90.80;;;;;;5011615;28;20026;-73
2022/03/02 04:23:33;;;;;;;15.88;9.90;;;-1.10;90.90;;;;;;5010996;28;20434;-73
2022/03/02 04:25:59;;;;;;;21.27;10.63;;;-1.10;91.00;;;;;;4993151;28;20079;-73
2022/03/02 04:28:25;;;;;;;19.42;10.55;;;-1.10;91.10;;;;;;5010114;28;20438;-73
2022/03/02 04:30:50;;;;;;;19.65;11.38;;;-1.10;91.30;;;;;;5010752;28;20056;-73
2022/03/02 04:33:16;;;;;;;19.50;10.82;;;-1.10;91.40;;;;;;5011391;28;20029;-73
2022/03/02 04:35:42;;;;;;;19.00;10.38;;;-1.10;91.40;;;;;;5014708;28;20112;-73
2022/03/02 04:38:09;;;;;;;20.83;11.13;;;-1.00;91.50;;;;;;5010207;28;20030;-73
2022/03/02 04:40:35;;;;;;;20.33;10.90;;;-1.00;91.60;;;;;;4992846;28;20076;-73
2022/03/02 04:43:01;;;;;;;19.38;10.73;;;-1.00;91.70;;;;;;5010680;28;20497;-73
2022/03/02 04:45:27;;;;;;;19.20;10.68;;;-1.00;91.60;;;;;;5011062;28;20022;-73
2022/03/02 04:47:57;;;;;;;19.85;10.38;;;-1.00;91.60;;;;;;5010346;28;20455;-73
2022/03/02 04:50:23;;;;;;;17.30;9.85;;;-1.10;91.80;;;;;;5000059;28;20030;-73
2022/03/02 04:52:51;;;;;;;22.00;11.48;;;-1.10;91.90;;;;;;4992757;28;20029;-73
2022/03/02 04:55:17;;;;;;;18.65;10.85;;;-1.10;92.00;;;;;;5012154;28;20475;-73
2022/03/02 04:57:44;;;;;;;17.42;10.32;;;-1.10;92.20;;;;;;5019901;28;20049;-73
2022/03/02 05:00:22;;;;;;;18.98;10.52;;;-1.10;92.30;;;;;;4992922;28;20101;-73
2022/03/02 05:02:48;;;;;;;17.48;10.18;;;-1.10;92.50;;;;;;5010785;28;20042;-73
2022/03/02 05:05:19;;;;;;;19.10;10.57;;;-1.10;92.40;;;;;;5010502;28;20025;-73
2022/03/02 05:07:45;;;;;;;21.50;10.75;;;-1.00;92.40;;;;;;5010137;28;20030;-73
2022/03/02 05:10:13;;;;;;;17.52;10.40;;;-1.10;92.20;;;;;;4992258;28;20034;-74
2022/03/02 05:12:39;;;;;;;19.20;9.98;;;-1.10;92.20;;;;;;5010577;28;20099;-73
2022/03/02 05:15:06;;;;;;;20.15;10.68;;;-1.20;92.20;;;;;;4993343;28;20034;-73
2022/03/02 05:17:32;;;;;;;20.52;9.95;;;-1.30;92.30;;;;;;4991957;28;20021;-73
2022/03/02 05:19:58;;;;;;;17.35;9.77;;;-1.40;92.30;;;;;;4992650;28;20486;-73
2022/03/02 05:22:23;;;;;;;16.70;9.77;;;-1.40;92.40;;;;;;4992778;28;20026;-73
2022/03/02 05:24:50;;;;;;;16.83;9.20;;;-1.40;92.60;;;;;;5010084;28;20026;-73
2022/03/02 05:27:15;;;;;;;14.90;9.05;;;-1.40;92.70;;;;;;4991808;28;20115;-73
2022/03/02 05:29:41;;;;;;;14.70;9.27;;;-1.40;92.80;;;;;;5009769;28;20629;-73
2022/03/02 05:32:07;;;;;;;14.40;8.43;;;-1.40;92.90;;;;;;4998920;28;20060;-73
2022/03/02 05:34:33;;;;;;;17.23;8.77;;;-1.40;92.80;;;;;;4991634;28;20034;-73
2022/03/02 05:36:59;;;;;;;17.75;8.98;;;-1.40;92.80;;;;;;4992511;28;20402;-74
2022/03/02 05:39:25;;;;;;;14.23;8.02;;;-1.40;92.70;;;;;;5047207;23;20119;-89
2022/03/02 05:41:51;;;;;;;16.17;8.70;;;-1.50;92.60;;;;;;5003602;28;20109;-88
2022/03/02 05:44:17;;;;;;;12.70;7.25;;;-1.50;92.50;;;;;;5023942;28;20022;-88
2022/03/02 05:46:43;;;;;;;14.10;8.43;;;-1.50;92.60;;;;;;5014136;28;20105;-89
2022/03/02 05:49:09;;;;;;;14.55;8.48;;;-1.50;92.70;;;;;;5011469;28;20100;-89
2022/03/02 05:51:35;;;;;;;13.00;8.40;;;-1.50;92.60;;;;;;4999465;28;20494;-89
2022/03/02 05:54:03;;;;;;;17.90;9.18;;;-1.50;92.70;;;;;;5012708;28;20083;-89
2022/03/02 05:56:29;;;;;;;13.13;7.97;;;-1.40;92.80;;;;;;5007128;28;20022;-89
2022/03/02 05:58:55;;;;;;;12.38;8.00;;;-1.40;92.90;;;;;;5010527;28;20021;-90
2022/03/02 06:01:21;;;;;;;11.45;8.07;;;-1.30;92.80;;;;;;5014038;28;20065;-88
2022/03/02 06:03:51;;;;;;;13.50;7.95;;;-1.30;92.80;;;;;;5013549;28;20026;-89
2022/03/02 06:06:17;;;;;;;14.15;8.70;;;-1.30;92.80;;;;;;5009155;28;20555;-90
2022/03/02 06:08:44;;;;;;;15.77;7.55;;;-1.30;92.70;;;;;;4999720;28;20030;-89
2022/03/02 06:11:09;;;;;;;12.40;7.93;;;-1.30;92.60;;;;;;5012604;28;20513;-88
2022/03/02 06:13:44;;;;;;;14.77;8.27;;;-1.30;92.60;;;;;;5013828;28;20030;-88
2022/03/02 06:16:10;;;;;;;19.33;9.60;;;-1.20;93.00;;;;;;5005024;28;20034;-88
2022/03/02 06:18:36;;;;;;;15.85;8.82;;;-1.20;92.90;;;;;;5013488;28;20030;-87
2022/03/02 06:21:03;;;;;;;13.82;8.63;;;-1.20;92.90;;;;;;5014097;28;20030;-88
2022/03/02 06:23:30;;;;;;;15.52;9.43;;;-1.20;92.90;;;;;;5016134;28;20108;-88
2022/03/02 06:25:56;;;;;;;15.52;8.38;;;-1.10;93.10;;;;;;5013527;28;20026;-88
2022/03/02 06:28:26;;;;;;;15.75;9.20;;;-1.00;93.30;;;;;;5018487;28;20121;-88
2022/03/02 06:30:52;;;;;;;18.38;9.98;;;-1.00;93.30;;;;;;5015209;28;20041;-87
2022/03/02 06:33:22;;;;;;;13.30;8.40;;;-0.90;93.20;;;;;;5010090;28;20071;-88
2022/03/02 06:35:48;;;;;;;16.65;9.02;;;-1.00;93.30;;;;;;5014178;28;20090;-87
2022/03/02 06:38:15;;;;;;;13.68;8.10;;;-0.80;93.50;;;;;;5017425;28;20042;-88
2022/03/02 06:40:53;;;;;;;13.93;8.77;;;-0.90;93.40;;;;;;5016402;28;20106;-87
2022/03/02 06:43:22;;;;;;;18.65;9.25;;;-0.80;93.40;;;;;;5031206;28;20017;-87
2022/03/02 06:45:56;;;;;;;17.60;9.30;;;-0.90;93.40;;;;;;5032482;28;20046;-88
2022/03/02 06:48:30;;;;;;;15.10;9.13;;;-0.80;93.60;;;;;;5018426;28;20109;-87
2022/03/02 06:50:59;;;;;;;19.83;8.75;;;-0.70;93.60;;;;;;5017851;28;20033;-87
2022/03/02 06:53:44;;;;;;;15.48;8.77;;;-0.60;93.70;;;;;;5010725;28;20033;-89
2022/03/02 06:56:10;;;;;;;16.17;9.50;;;-0.50;93.70;;;;;;5005106;28;20026;-88
2022/03/02 06:58:51;;;;;;;15.52;9.90;;;-0.50;93.60;;;;;;5015660;28;20037;-90
2022/03/02 07:01:25;;;;;;;13.63;8.77;;;-0.40;93.90;;;;;;5015780;28;20034;-91
2022/03/02 07:03:54;;;;;;;12.77;8.23;;;-0.40;93.90;;;;;;5014154;28;20035;-90
2022/03/02 07:06:22;;;;;;;13.45;8.50;;;-0.30;93.90;;;;;;5015174;28;20434;-88
2022/03/02 07:08:51;;;;;;;15.63;8.80;;;0.00;93.70;;;;;;5013516;28;20488;-87
2022/03/02 07:11:17;;;;;;;13.93;7.90;;;0.30;93.50;;;;;;5015358;28;20057;-87
2022/03/02 07:13:44;;;;;;;13.95;8.00;;;0.30;93.60;;;;;;5012842;28;20371;-87
2022/03/02 07:16:15;;;;;;;13.23;8.50;;;0.50;93.70;;;;;;5019951;28;20033;-87
2022/03/02 07:18:41;;;;;;;12.65;8.20;;;0.50;93.80;;;;;;5011718;28;20575;-88
2022/03/02 07:21:12;;;;;;;14.35;8.40;;;0.60;93.70;;;;;;5012532;28;20030;-88
2022/03/02 07:23:46;;;;;;;16.45;8.23;;;0.70;93.90;;;;;;5015554;28;20109;-88
2022/03/02 07:26:12;;;;;;;13.13;8.13;;;0.80;93.90;;;;;;5035154;28;20021;-91
2022/03/02 07:28:39;;;;;;;12.63;7.95;;;0.90;93.80;;;;;;5028082;28;20406;-89
2022/03/02 07:31:11;;;;;;;15.43;8.48;;;1.00;93.60;;;;;;5032122;28;20006;-90
2022/03/02 07:33:42;;;;;;;13.43;7.53;;;1.10;93.70;;;;;;5033576;28;20037;-90
2022/03/02 07:36:10;;;;;;;12.87;7.40;;;1.30;93.60;;;;;;5018652;28;20463;-90
2022/03/02 07:38:36;;;;;;;11.13;7.20;;;1.50;93.50;;;;;;5010818;28;20034;-86
2022/03/02 07:41:07;;;;;;;9.63;6.82;;;1.70;93.40;;;;;;5012607;28;20037;-87
2022/03/02 07:43:36;;;;;;;11.55;7.22;;;1.80;93.10;;;;;;5011944;28;20026;-90
2022/03/02 07:46:07;;;;;;;12.50;6.60;;;1.80;92.90;;;;;;5008749;28;20056;-90
2022/03/02 07:48:36;;;;;;;16.45;7.07;;;2.00;92.70;;;;;;5022002;28;20029;-90
2022/03/02 07:51:05;;;;;;;10.85;7.25;;;2.10;92.60;;;;;;5017020;28;20026;-88
2022/03/02 07:53:37;;;;;;;10.60;6.60;;;2.00;92.30;;;;;;5020299;28;20030;-88
2022/03/02 07:56:04;;;;;;;9.60;6.68;;;1.90;92.20;;;;;;5019854;28;20030;-88
2022/03/02 07:58:41;;;;;;;10.90;6.55;;;1.90;92.10;;;;;;5012614;28;20112;-88
2022/03/02 08:01:13;;;;;;;9.45;6.13;;;1.90;92.30;;;;;;5015446;28;20034;-87
2022/03/02 08:03:42;;;;;;;11.55;6.57;;;1.80;92.00;;;;;;5020632;28;20022;-88
2022/03/02 08:06:08;;;;;;;11.15;6.43;;;1.80;92.00;;;;;;5019871;28;20041;-88
2022/03/02 08:08:41;;;;;;;9.35;6.65;;;1.70;92.10;;;;;;5013383;28;20348;-88
2022/03/02 08:11:10;;;;;;;10.07;5.90;;;1.70;92.10;;;;;;5011472;28;20056;-89
2022/03/02 08:13:40;;;;;;;9.55;5.93;;;1.60;92.00;;;;;;5013440;28;20053;-88
2022/03/02 08:16:09;;;;;;;9.93;6.00;;;1.50;91.80;;;;;;5012474;28;20406;-89
2022/03/02 08:18:35;;;;;;;10.68;6.45;;;1.50;91.90;;;;;;5012023;28;20065;-89
2022/03/02 08:21:03;;;;;;;11.50;6.97;;;1.50;91.90;;;;;;5012950;28;20478;-88
2022/03/02 08:23:37;;;;;;;12.00;6.63;;;1.50;91.90;;;;;;5012872;28;20073;-89
2022/03/02 08:26:36;;;;;;;;;;;;;;;;;;;;;
2022/03/02 08:29:26;;;;;;;13.73;6.88;;;1.50;92.00;;;;;;5020318;28;20071;-89
2022/03/02 08:32:24;;;;;;;12.05;6.78;;;1.50;92.20;;;;;;5034361;28;20097;-89
2022/03/02 08:34:51;;;;;;;8.68;5.88;;;1.60;92.20;;;;;;5034485;28;20038;-90
2022/03/02 08:37:21;;;;;;;11.45;6.53;;;1.70;92.10;;;;;;5005665;28;20028;-90
2022/03/02 08:39:48;;;;;;;11.85;6.10;;;1.70;92.10;;;;;;5007408;28;20044;-89
2022/03/02 08:42:14;;;;;;;9.88;6.10;;;1.80;92.10;;;;;;5012138;28;20293;-87
2022/03/02 08:44:40;;;;;;;10.27;5.30;;;1.90;92.20;;;;;;5012442;28;20466;-86
2022/03/02 08:47:06;;;;;;;11.57;5.38;;;2.10;92.20;;;;;;5012089;28;20022;-87
2022/03/02 08:49:32;;;;;;;9.38;5.47;;;2.40;92.10;;;;;;5011104;28;20022;-85
2022/03/02 08:51:58;;;;;;;8.48;5.70;;;2.50;92.00;;;;;;5012937;28;20030;-86
2022/03/02 08:54:26;;;;;;;9.55;5.40;;;2.70;91.90;;;;;;5026687;28;20030;-86
2022/03/02 08:56:53;;;;;;;9.48;5.38;;;2.90;91.50;;;;;;5022113;28;20029;-87
2022/03/02 08:59:20;;;;;;;8.15;5.10;;;3.00;91.30;;;;;;5013026;28;20376;-86
2022/03/02 09:01:52;;;;;;;10.70;5.70;;;3.10;91.10;;;;;;5014233;28;20022;-86
2022/03/02 09:04:18;;;;;;;8.10;5.60;;;3.10;90.70;;;;;;5012409;28;20018;-87
2022/03/02 09:06:45;;;;;;;11.80;5.72;;;3.20;90.60;;;;;;5012844;28;20038;-86
2022/03/02 09:09:11;;;;;;;10.82;6.05;;;3.20;90.40;;;;;;5012125;28;20014;-87
2022/03/02 09:11:38;;;;;;;9.20;5.80;;;3.20;90.30;;;;;;5010868;28;20026;-87
2022/03/02 09:14:04;;;;;;;8.73;5.65;;;3.20;90.20;;;;;;5005340;28;20133;-88
2022/03/02 09:16:30;;;;;;;11.85;5.95;;;3.30;90.20;;;;;;5004891;28;20030;-87
2022/03/02 09:18:56;;;;;;;9.52;6.05;;;3.40;90.20;;;;;;5011923;28;20030;-87
2022/03/02 09:21:22;;;;;;;9.70;5.68;;;3.50;90.10;;;;;;5008694;28;20061;-88
2022/03/02 09:23:49;;;;;;;7.88;5.43;;;3.60;90.00;;;;;;5003540;28;20037;-88
2022/03/02 09:26:18;;;;;;;10.00;5.80;;;3.70;90.00;;;;;;5004071;28;20071;-87
2022/03/02 09:28:47;;;;;;;8.38;5.80;;;3.80;90.00;;;;;;5014618;28;20061;-86
2022/03/02 09:31:15;;;;;;;8.23;5.88;;;3.90;89.90;;;;;;5010245;28;20036;-87
2022/03/02 09:33:43;;;;;;;11.95;5.93;;;4.00;89.90;;;;;;5011102;28;20091;-87
2022/03/02 09:36:10;;;;;;;10.43;6.00;;;4.10;89.70;;;;;;5003512;28;20049;-86
2022/03/02 09:38:37;;;;;;;7.63;5.28;;;4.20;89.20;;;;;;5006652;28;20042;-87
2022/03/02 09:41:12;;;;;;;8.18;5.28;;;4.20;88.80;;;;;;5012459;28;20058;-86
2022/03/02 09:43:42;;;;;;;9.70;6.20;;;4.30;88.60;;;;;;5011479;28;20051;-87
2022/03/02 09:46:10;;;;;;;9.27;6.18;;;4.30;88.30;;;;;;5014210;28;20042;-86
2022/03/02 09:48:49;;;;;;;10.23;6.13;;;4.30;88.20;;;;;;5010886;28;20022;-87
2022/03/02 09:51:34;;;;;;;10.95;5.63;;;4.60;88.50;;;;;;5011032;28;20330;-87
2022/03/02 09:54:02;;;;;;;8.32;5.07;;;4.70;88.70;;;;;;5013330;28;20026;-86
2022/03/02 09:56:31;;;;;;;10.07;5.70;;;4.80;88.50;;;;;;5029229;28;20030;-86
2022/03/02 09:58:58;;;;;;;11.88;5.47;;;4.90;88.30;;;;;;5011209;28;20040;-87
2022/03/02 10:01:25;;;;;;;9.45;5.93;;;4.90;87.90;;;;;;5013249;28;20046;-87
2022/03/02 10:03:52;;;;;;;11.00;5.40;;;4.90;87.70;;;;;;5013380;28;20057;-86
2022/03/02 10:06:21;;;;;;;8.93;5.25;;;5.00;87.60;;;;;;5011845;28;20046;-87
2022/03/02 10:08:46;;;;;;;7.80;5.70;;;5.30;87.80;;;;;;5004794;28;20115;-86
2022/03/02 10:11:24;;;;;;;7.68;5.25;;;5.50;88.00;;;;;;5011288;28;20113;-87
2022/03/02 10:13:51;;;;;;;9.75;5.50;;;5.60;87.80;;;;;;5011462;28;20038;-88
2022/03/02 10:16:25;;;;;;;9.70;5.47;;;5.80;86.90;;;;;;5011159;28;20036;-87
2022/03/02 10:19:02;;;;;;;12.57;5.65;;;5.80;85.90;;;;;;5011661;28;20041;-87
2022/03/02 10:21:33;;;;;;;8.48;5.68;;;5.80;85.70;;;;;;5011466;28;20087;-87
2022/03/02 10:24:01;;;;;;;9.40;5.72;;;5.80;85.50;;;;;;5011598;28;20076;-87
2022/03/02 10:26:34;;;;;;;8.02;5.10;;;5.80;85.20;;;;;;5012474;28;20076;-87
2022/03/02 10:29:34;;;;;;;7.47;5.47;;;5.80;84.70;;;;;;5011297;28;20026;-88
2022/03/02 10:32:16;;;;;;;9.52;5.10;;;5.70;84.50;;;;;;4995401;28;20406;-86
2022/03/02 10:34:50;;;;;;;9.25;5.20;;;5.70;84.70;;;;;;5009544;28;20034;-87
2022/03/02 10:37:19;;;;;;;10.63;6.43;;;5.80;84.50;;;;;;5011250;28;20092;-88
2022/03/02 10:40:09;;;;;;;7.20;5.50;;;5.80;83.90;;;;;;5022876;28;20116;-88
2022/03/02 10:42:57;;;;;;;10.73;5.28;;;5.80;83.40;;;;;;5007994;28;20026;-87
2022/03/02 10:45:29;;;;;;;14.65;5.38;;;5.80;83.00;;;;;;5009782;28;20487;-88
2022/03/02 10:48:16;;;;;;;8.52;4.65;;;5.80;82.90;;;;;;5007028;28;20045;-87
2022/03/02 10:50:43;;;;;;;7.32;4.63;;;5.80;82.80;;;;;;5009195;28;20409;-86
2022/03/02 10:53:15;;;;;;;7.15;4.72;;;5.80;83.00;;;;;;5012695;28;20104;-87
2022/03/02 10:55:45;;;;;;;;;;;5.80;82.70;;;;;;5016656;28;20072;-87
2022/03/02 10:58:14;;;;;;;7.15;4.90;;;5.80;83.20;;;;;;5014127;28;19931;-87
2022/03/02 11:00:40;;;;;;;8.25;5.38;;;5.70;82.80;;;;;;5019194;28;20040;-87
2022/03/02 11:03:07;;;;;;;8.27;5.22;;;5.70;82.80;;;;;;5015049;28;20026;-87
2022/03/02 11:05:34;;;;;;;7.85;5.15;;;5.70;82.90;;;;;;5013507;28;20116;-87
2022/03/02 11:08:00;;;;;;;8.63;5.50;;;5.70;82.70;;;;;;5012438;28;20032;-87
2022/03/02 11:10:37;;;;;;;6.93;5.07;;;5.80;82.40;;;;;;5008999;28;20032;-87
2022/03/02 11:13:12;;;;;;;10.27;5.97;;;5.80;82.20;;;;;;5011999;28;20028;-87
2022/03/02 11:15:52;;;;;;;8.88;5.07;;;5.80;81.90;;;;;;5013758;28;20022;-87
2022/03/02 11:18:35;;;;;;;8.13;5.70;;;5.70;81.80;;;;;;5006317;28;20037;-87
2022/03/02 11:21:05;;;;;;;9.57;5.72;;;5.70;82.20;;;;;;5013287;28;20018;-87
2022/03/02 11:23:42;;;;;;;11.55;6.53;;;5.70;82.30;;;;;;5019638;28;20037;-88
2022/03/02 11:26:12;;;;;;;10.25;6.05;;;5.60;82.30;;;;;;5008815;28;20096;-86
2022/03/02 11:28:38;;;;;;;9.50;6.07;;;5.60;82.60;;;;;;5007236;28;20022;-88
2022/03/02 11:31:08;;;;;;;11.23;6.15;;;5.60;82.60;;;;;;5009565;28;20025;-87
2022/03/02 11:33:34;;;;;;;10.77;6.38;;;5.60;82.70;;;;;;5014748;28;20029;-87
2022/03/02 11:36:12;;;;;;;9.82;6.22;;;5.50;82.80;;;;;;5015443;28;20235;-86
2022/03/02 11:41:06;;;;;;;11.93;6.43;;;5.50;82.70;;;;;;5011129;28;20057;-75
2022/03/02 11:43:34;;;;;;;12.30;6.32;;;5.40;82.60;;;;;;5014361;28;20029;-74
2022/03/02 11:46:02;;;;;;;9.10;5.88;;;5.50;82.50;;;;;;4995674;28;20684;-73
2022/03/02 11:48:30;;;;;;;12.65;6.40;;;5.40;82.90;;;;;;5010649;28;20041;-74
2022/03/02 11:51:14;;;;;;;13.27;6.75;;;5.40;82.90;;;;;;5001106;28;20025;-76
2022/03/02 11:53:50;;;;;;;10.93;6.00;;;5.40;82.90;;;;;;4992789;28;20057;-75
2022/03/02 11:56:19;;;;;;;9.70;6.32;;;5.40;83.00;;;;;;4996804;28;20148;-73
2022/03/02 11:58:59;;;;;;;10.32;6.40;;;5.40;83.10;;;;;;5011348;28;20018;-74
2022/03/02 12:01:37;;;;;;;8.75;6.00;;;5.40;83.10;;;;;;4992829;28;20045;-72
2022/03/02 12:04:03;;;;;;;8.93;5.97;;;5.40;83.20;;;;;;5014068;28;20040;-73
2022/03/02 12:06:37;;;;;;;9.00;6.32;;;5.50;83.30;;;;;;5022113;28;20022;-72
2022/03/02 12:09:04;;;;;;;10.55;6.32;;;5.40;83.30;;;;;;5011470;28;20398;-73
2022/03/02 12:11:35;;;;;;;29.48;16.55;;;5.50;83.20;;;;;;5004426;28;20096;-72
2022/03/02 12:14:09;;;;;;;11.75;6.55;;;5.50;83.40;;;;;;5004804;28;20029;-72
2022/03/02 12:16:39;;;;;;;11.82;6.63;;;5.50;83.40;;;;;;5021702;28;20022;-72
2022/03/02 12:19:09;;;;;;;10.07;6.72;;;5.50;83.20;;;;;;5024999;28;20029;-72
2022/03/02 12:21:35;;;;;;;9.20;6.57;;;5.50;83.00;;;;;;5015708;28;20056;-75
2022/03/02 12:24:01;;;;;;;9.07;6.30;;;5.50;82.70;;;;;;5011978;28;20034;-72
2022/03/02 12:26:27;;;;;;;8.60;5.72;;;5.50;82.40;;;;;;4995364;28;20022;-73
2022/03/02 12:28:57;;;;;;;12.45;6.57;;;5.50;82.30;;;;;;5012038;28;20085;-75
2022/03/02 12:31:32;;;;;;;10.75;6.43;;;5.50;82.30;;;;;;4986935;28;20096;-72
2022/03/02 12:34:14;;;;;;;9.43;6.13;;;5.50;82.40;;;;;;5020599;28;20489;-72
2022/03/02 12:36:41;;;;;;;10.50;6.50;;;5.50;82.60;;;;;;5012428;28;20030;-73
2022/03/02 12:39:07;;;;;;;14.90;6.22;;;5.50;82.70;;;;;;5004502;28;20080;-72
2022/03/02 12:41:33;;;;;;;8.65;6.32;;;5.50;82.80;;;;;;5013901;28;20608;-74
2022/03/02 12:44:00;;;;;;;10.35;6.22;;;5.60;83.00;;;;;;5031762;28;20026;-72
2022/03/02 12:46:27;;;;;;;9.52;6.05;;;5.60;83.20;;;;;;5031803;28;20124;-73
2022/03/02 12:48:55;;;;;;;10.40;6.40;;;5.60;83.30;;;;;;5017415;28;20022;-72
2022/03/02 12:51:23;;;;;;;9.23;5.90;;;5.60;83.40;;;;;;4994361;28;20087;-72